sensor_id;sensor_type;location;lat;lon;timestamp;temperature;humidity
31455;DHT22;18084;53.028;8.834;2022-11-02T00:01:35;12.00;99.90
31455;DHT22;18084;53.028;8.834;2022-11-02T00:04:01;12.00;99.90
31455;DHT22;18084;53.028;8.834;2022-11-02T00:06:27;11.90;99.90
31455;DHT22;18084;53.028;8.834;2022-11-02T00:08:52;12.00;99.90
31455;DHT22;18084;53.028;8.834;2022-11-02T00:11:18;12.30;99.90
31455;DHT22;18084;53.028;8.834;2022-11-02T00:13:43;12.00;99.90
31455;DHT22;18084;53.028;8.834;2022-11-02T00:16:10;11.90;99.90
31455;DHT22;18084;53.028;8.834;2022-11-02T00:18:37;11.90;99.90
31455;DHT22;18084;53.028;8.834;2022-11-02T00:21:03;11.90;99.90
31455;DHT22;18084;53.028;8.834;2022-11-02T00:23:29;11.80;99.90
31455;DHT22;18084;53.028;8.834;2022-11-02T00:25:55;11.80;99.90
31455;DHT22;18084;53.028;8.834;2022-11-02T00:28:22;11.80;99.90
31455;DHT22;18084;53.028;8.834;2022-11-02T00:30:47;11.80;99.90
31455;DHT22;18084;53.028;8.834;2022-11-02T00:33:13;11.80;99.90
31455;DHT22;18084;53.028;8.834;2022-11-02T00:35:38;11.80;99.90
31455;DHT22;18084;53.028;8.834;2022-11-02T00:38:04;11.80;99.90
31455;DHT22;18084;53.028;8.834;2022-11-02T00:40:30;11.80;99.90
31455;DHT22;18084;53.028;8.834;2022-11-02T00:42:55;11.90;99.90
31455;DHT22;18084;53.028;8.834;2022-11-02T00:45:21;11.90;99.90
31455;DHT22;18084;53.028;8.834;2022-11-02T00:47:47;11.90;99.90
31455;DHT22;18084;53.028;8.834;2022-11-02T00:50:13;11.90;99.90
31455;DHT22;18084;53.028;8.834;2022-11-02T00:52:39;11.90;99.90
31455;DHT22;18084;53.028;8.834;2022-11-02T00:55:05;12.00;99.90
31455;DHT22;18084;53.028;8.834;2022-11-02T00:57:31;12.00;99.90
31455;DHT22;18084;53.028;8.834;2022-11-02T00:59:56;12.90;99.90
31455;DHT22;18084;53.028;8.834;2022-11-02T01:02:22;12.10;99.90
31455;DHT22;18084;53.028;8.834;2022-11-02T01:04:47;12.10;99.90
31455;DHT22;18084;53.028;8.834;2022-11-02T01:07:13;12.10;99.90
31455;DHT22;18084;53.028;8.834;2022-11-02T01:09:38;12.20;99.90
31455;DHT22;18084;53.028;8.834;2022-11-02T01:12:04;12.20;99.90
31455;DHT22;18084;53.028;8.834;2022-11-02T01:14:30;12.20;99.90
31455;DHT22;18084;53.028;8.834;2022-11-02T01:16:55;12.20;99.90
31455;DHT22;18084;53.028;8.834;2022-11-02T01:19:23;12.10;99.90
31455;DHT22;18084;53.028;8.834;2022-11-02T01:21:48;12.00;99.90
31455;DHT22;18084;53.028;8.834;2022-11-02T01:24:14;12.20;99.90
31455;DHT22;18084;53.028;8.834;2022-11-02T01:26:39;12.40;99.90
31455;DHT22;18084;53.028;8.834;2022-11-02T01:29:05;12.10;99.90
31455;DHT22;18084;53.028;8.834;2022-11-02T01:31:30;12.10;99.90
31455;DHT22;18084;53.028;8.834;2022-11-02T01:33:56;12.10;99.90
31455;DHT22;18084;53.028;8.834;2022-11-02T01:36:21;12.10;99.90
31455;DHT22;18084;53.028;8.834;2022-11-02T01:38:47;12.10;99.90
31455;DHT22;18084;53.028;8.834;2022-11-02T01:41:14;12.00;99.90
31455;DHT22;18084;53.028;8.834;2022-11-02T01:43:41;12.10;99.90
31455;DHT22;18084;53.028;8.834;2022-11-02T01:48:46;12.00;99.90
31455;DHT22;18084;53.028;8.834;2022-11-02T01:51:22;12.00;99.90
31455;DHT22;18084;53.028;8.834;2022-11-02T01:53:50;12.10;99.90
31455;DHT22;18084;53.028;8.834;2022-11-02T01:56:20;12.10;99.90
31455;DHT22;18084;53.028;8.834;2022-11-02T01:58:48;12.10;99.90
31455;DHT22;18084;53.028;8.834;2022-11-02T02:01:16;12.10;99.90
31455;DHT22;18084;53.028;8.834;2022-11-02T02:03:41;12.20;99.90
31455;DHT22;18084;53.028;8.834;2022-11-02T02:06:11;12.20;99.90
31455;DHT22;18084;53.028;8.834;2022-11-02T02:08:41;12.20;99.90
31455;DHT22;18084;53.028;8.834;2022-11-02T02:11:33;12.20;99.90
31455;DHT22;18084;53.028;8.834;2022-11-02T02:14:03;12.30;99.90
31455;DHT22;18084;53.028;8.834;2022-11-02T02:19:38;12.20;99.90
31455;DHT22;18084;53.028;8.834;2022-11-02T02:22:50;12.20;1.00
31455;DHT22;18084;53.028;8.834;2022-11-02T02:25:22;12.20;1.00
31455;DHT22;18084;53.028;8.834;2022-11-02T02:28:11;12.10;1.00
31455;DHT22;18084;53.028;8.834;2022-11-02T02:30:45;12.00;1.00
31455;DHT22;18084;53.028;8.834;2022-11-02T02:33:26;11.90;1.00
31455;DHT22;18084;53.028;8.834;2022-11-02T02:36:19;12.00;1.00
31455;DHT22;18084;53.028;8.834;2022-11-02T02:38:53;12.00;1.00
31455;DHT22;18084;53.028;8.834;2022-11-02T02:41:38;12.00;1.00
31455;DHT22;18084;53.028;8.834;2022-11-02T02:44:12;11.90;1.00
31455;DHT22;18084;53.028;8.834;2022-11-02T02:46:45;11.90;1.00
31455;DHT22;18084;53.028;8.834;2022-11-02T02:49:18;11.90;1.00
31455;DHT22;18084;53.028;8.834;2022-11-02T02:51:47;11.90;1.00
31455;DHT22;18084;53.028;8.834;2022-11-02T02:54:23;11.80;1.00
31455;DHT22;18084;53.028;8.834;2022-11-02T02:56:53;11.90;1.00
31455;DHT22;18084;53.028;8.834;2022-11-02T02:59:23;11.90;1.00
31455;DHT22;18084;53.028;8.834;2022-11-02T03:01:50;11.90;1.00
31455;DHT22;18084;53.028;8.834;2022-11-02T03:04:17;11.80;1.00
31455;DHT22;18084;53.028;8.834;2022-11-02T03:06:44;11.90;1.00
31455;DHT22;18084;53.028;8.834;2022-11-02T03:15:09;11.80;1.00
31455;DHT22;18084;53.028;8.834;2022-11-02T03:34:01;12.00;16.90
31455;DHT22;18084;53.028;8.834;2022-11-02T03:36:33;12.00;25.10
31455;DHT22;18084;53.028;8.834;2022-11-02T03:39:07;12.00;26.40
31455;DHT22;18084;53.028;8.834;2022-11-02T03:41:34;12.10;13.50
31455;DHT22;18084;53.028;8.834;2022-11-02T03:44:07;12.10;18.10
31455;DHT22;18084;53.028;8.834;2022-11-02T03:46:37;12.10;15.20
31455;DHT22;18084;53.028;8.834;2022-11-02T03:49:05;12.20;10.40
31455;DHT22;18084;53.028;8.834;2022-11-02T03:51:33;12.20;16.90
31455;DHT22;18084;53.028;8.834;2022-11-02T03:54:27;12.20;13.60
31455;DHT22;18084;53.028;8.834;2022-11-02T03:56:58;12.20;9.50
31455;DHT22;18084;53.028;8.834;2022-11-02T03:59:29;12.20;1.00
31455;DHT22;18084;53.028;8.834;2022-11-02T04:01:56;12.20;1.00
31455;DHT22;18084;53.028;8.834;2022-11-02T04:04:21;12.30;1.00
31455;DHT22;18084;53.028;8.834;2022-11-02T04:06:47;12.30;1.00
31455;DHT22;18084;53.028;8.834;2022-11-02T04:09:14;12.30;1.00
31455;DHT22;18084;53.028;8.834;2022-11-02T04:11:40;12.30;1.00
31455;DHT22;18084;53.028;8.834;2022-11-02T04:14:24;12.30;1.00
31455;DHT22;18084;53.028;8.834;2022-11-02T04:17:07;12.20;10.30
31455;DHT22;18084;53.028;8.834;2022-11-02T04:19:52;12.20;11.10
31455;DHT22;18084;53.028;8.834;2022-11-02T04:22:18;12.20;13.00
31455;DHT22;18084;53.028;8.834;2022-11-02T04:25:03;12.20;11.60
31455;DHT22;18084;53.028;8.834;2022-11-02T04:27:49;12.10;16.40
31455;DHT22;18084;53.028;8.834;2022-11-02T04:30:17;12.00;15.60
31455;DHT22;18084;53.028;8.834;2022-11-02T04:32:45;12.00;15.30
31455;DHT22;18084;53.028;8.834;2022-11-02T04:35:40;12.00;16.60
31455;DHT22;18084;53.028;8.834;2022-11-02T04:38:05;11.90;18.50
31455;DHT22;18084;53.028;8.834;2022-11-02T04:40:50;11.90;18.50
31455;DHT22;18084;53.028;8.834;2022-11-02T04:43:35;12.00;12.00
31455;DHT22;18084;53.028;8.834;2022-11-02T04:46:01;12.00;14.50
31455;DHT22;18084;53.028;8.834;2022-11-02T04:48:26;12.00;30.00
31455;DHT22;18084;53.028;8.834;2022-11-02T04:50:51;12.00;34.20
31455;DHT22;18084;53.028;8.834;2022-11-02T04:53:17;12.00;46.40
31455;DHT22;18084;53.028;8.834;2022-11-02T04:55:44;12.00;49.20
31455;DHT22;18084;53.028;8.834;2022-11-02T04:58:10;12.00;62.10
31455;DHT22;18084;53.028;8.834;2022-11-02T05:00:35;12.20;72.00
31455;DHT22;18084;53.028;8.834;2022-11-02T05:03:01;12.00;85.30
31455;DHT22;18084;53.028;8.834;2022-11-02T05:05:26;11.90;97.50
31455;DHT22;18084;53.028;8.834;2022-11-02T05:07:52;11.80;99.90
31455;DHT22;18084;53.028;8.834;2022-11-02T05:10:17;11.70;99.90
31455;DHT22;18084;53.028;8.834;2022-11-02T05:12:43;11.70;99.90
31455;DHT22;18084;53.028;8.834;2022-11-02T05:15:09;11.60;99.90
31455;DHT22;18084;53.028;8.834;2022-11-02T05:17:34;11.50;99.90
31455;DHT22;18084;53.028;8.834;2022-11-02T05:20:00;11.40;99.90
31455;DHT22;18084;53.028;8.834;2022-11-02T05:22:26;11.30;99.90
31455;DHT22;18084;53.028;8.834;2022-11-02T05:24:51;11.20;99.90
31455;DHT22;18084;53.028;8.834;2022-11-02T05:27:16;11.10;99.90
31455;DHT22;18084;53.028;8.834;2022-11-02T05:29:42;11.00;99.90
31455;DHT22;18084;53.028;8.834;2022-11-02T05:32:08;10.90;99.90
31455;DHT22;18084;53.028;8.834;2022-11-02T05:34:33;10.90;99.90
31455;DHT22;18084;53.028;8.834;2022-11-02T05:36:58;10.80;99.90
31455;DHT22;18084;53.028;8.834;2022-11-02T05:39:24;10.70;99.90
31455;DHT22;18084;53.028;8.834;2022-11-02T05:41:49;10.70;99.90
31455;DHT22;18084;53.028;8.834;2022-11-02T05:44:15;10.70;99.90
31455;DHT22;18084;53.028;8.834;2022-11-02T05:46:41;10.70;99.90
31455;DHT22;18084;53.028;8.834;2022-11-02T05:49:07;10.70;99.90
31455;DHT22;18084;53.028;8.834;2022-11-02T05:51:32;10.70;99.90
31455;DHT22;18084;53.028;8.834;2022-11-02T05:53:58;10.60;99.90
31455;DHT22;18084;53.028;8.834;2022-11-02T05:56:24;10.60;99.90
31455;DHT22;18084;53.028;8.834;2022-11-02T05:58:49;10.70;99.90
31455;DHT22;18084;53.028;8.834;2022-11-02T06:01:15;10.70;99.90
31455;DHT22;18084;53.028;8.834;2022-11-02T06:03:41;10.80;99.90
31455;DHT22;18084;53.028;8.834;2022-11-02T06:06:08;10.70;99.90
31455;DHT22;18084;53.028;8.834;2022-11-02T06:08:35;10.70;99.90
31455;DHT22;18084;53.028;8.834;2022-11-02T06:11:09;10.70;99.90
31455;DHT22;18084;53.028;8.834;2022-11-02T06:13:35;10.70;99.90
31455;DHT22;18084;53.028;8.834;2022-11-02T06:16:01;10.70;99.90
31455;DHT22;18084;53.028;8.834;2022-11-02T06:18:28;10.70;99.90
31455;DHT22;18084;53.028;8.834;2022-11-02T06:20:55;10.70;99.90
31455;DHT22;18084;53.028;8.834;2022-11-02T06:23:21;10.80;99.90
31455;DHT22;18084;53.028;8.834;2022-11-02T06:26:05;10.90;99.90
31455;DHT22;18084;53.028;8.834;2022-11-02T06:28:30;10.90;99.90
31455;DHT22;18084;53.028;8.834;2022-11-02T06:30:56;10.90;99.90
31455;DHT22;18084;53.028;8.834;2022-11-02T06:33:22;11.00;99.90
31455;DHT22;18084;53.028;8.834;2022-11-02T06:35:49;11.00;99.90
31455;DHT22;18084;53.028;8.834;2022-11-02T06:38:15;11.00;99.90
31455;DHT22;18084;53.028;8.834;2022-11-02T06:40:40;11.00;99.90
31455;DHT22;18084;53.028;8.834;2022-11-02T06:43:06;11.00;99.90
31455;DHT22;18084;53.028;8.834;2022-11-02T06:45:32;11.00;99.90
31455;DHT22;18084;53.028;8.834;2022-11-02T06:47:57;11.00;99.90
31455;DHT22;18084;53.028;8.834;2022-11-02T06:50:23;11.00;99.90
31455;DHT22;18084;53.028;8.834;2022-11-02T06:52:49;10.90;99.90
31455;DHT22;18084;53.028;8.834;2022-11-02T06:55:15;13.00;99.90
31455;DHT22;18084;53.028;8.834;2022-11-02T06:57:41;11.10;99.90
31455;DHT22;18084;53.028;8.834;2022-11-02T07:00:09;11.20;99.90
31455;DHT22;18084;53.028;8.834;2022-11-02T07:02:40;11.30;99.90
31455;DHT22;18084;53.028;8.834;2022-11-02T07:05:05;11.30;99.90
31455;DHT22;18084;53.028;8.834;2022-11-02T07:07:31;11.40;99.90
31455;DHT22;18084;53.028;8.834;2022-11-02T07:09:57;11.40;99.90
31455;DHT22;18084;53.028;8.834;2022-11-02T07:12:22;11.40;99.90
31455;DHT22;18084;53.028;8.834;2022-11-02T07:14:47;11.50;99.90
31455;DHT22;18084;53.028;8.834;2022-11-02T07:17:13;11.50;99.90
31455;DHT22;18084;53.028;8.834;2022-11-02T07:19:38;11.50;99.90
31455;DHT22;18084;53.028;8.834;2022-11-02T07:22:04;11.60;99.90
31455;DHT22;18084;53.028;8.834;2022-11-02T07:24:29;11.60;99.10
31455;DHT22;18084;53.028;8.834;2022-11-02T07:26:55;11.70;96.50
31455;DHT22;18084;53.028;8.834;2022-11-02T07:29:21;11.70;97.70
31455;DHT22;18084;53.028;8.834;2022-11-02T07:31:46;12.00;96.40
31455;DHT22;18084;53.028;8.834;2022-11-02T07:34:12;11.80;95.70
31455;DHT22;18084;53.028;8.834;2022-11-02T07:36:38;11.80;95.60
31455;DHT22;18084;53.028;8.834;2022-11-02T07:39:04;11.90;92.30
31455;DHT22;18084;53.028;8.834;2022-11-02T07:41:29;12.00;92.20
31455;DHT22;18084;53.028;8.834;2022-11-02T07:43:55;12.00;93.00
31455;DHT22;18084;53.028;8.834;2022-11-02T07:46:20;12.10;86.70
31455;DHT22;18084;53.028;8.834;2022-11-02T07:48:46;12.20;82.30
31455;DHT22;18084;53.028;8.834;2022-11-02T07:51:12;12.20;80.10
31455;DHT22;18084;53.028;8.834;2022-11-02T07:53:38;12.30;80.10
31455;DHT22;18084;53.028;8.834;2022-11-02T07:56:03;12.40;72.60
31455;DHT22;18084;53.028;8.834;2022-11-02T07:58:29;12.40;76.10
31455;DHT22;18084;53.028;8.834;2022-11-02T08:00:56;12.60;73.50
31455;DHT22;18084;53.028;8.834;2022-11-02T08:03:22;12.70;59.90
31455;DHT22;18084;53.028;8.834;2022-11-02T08:05:47;12.70;60.60
31455;DHT22;18084;53.028;8.834;2022-11-02T08:08:16;12.70;58.50
31455;DHT22;18084;53.028;8.834;2022-11-02T08:10:43;12.70;63.80
31455;DHT22;18084;53.028;8.834;2022-11-02T08:13:11;12.70;68.90
31455;DHT22;18084;53.028;8.834;2022-11-02T08:15:37;12.70;68.40
31455;DHT22;18084;53.028;8.834;2022-11-02T08:18:04;12.70;67.00
31455;DHT22;18084;53.028;8.834;2022-11-02T08:20:34;12.60;72.60
31455;DHT22;18084;53.028;8.834;2022-11-02T08:23:00;12.60;77.10
31455;DHT22;18084;53.028;8.834;2022-11-02T08:25:25;12.70;79.80
31455;DHT22;18084;53.028;8.834;2022-11-02T08:27:51;12.90;76.40
31455;DHT22;18084;53.028;8.834;2022-11-02T08:30:16;13.80;43.60
31455;DHT22;18084;53.028;8.834;2022-11-02T08:32:42;14.60;1.00
31455;DHT22;18084;53.028;8.834;2022-11-02T08:35:08;14.90;99.90
31455;DHT22;18084;53.028;8.834;2022-11-02T08:37:33;15.30;1.00
31455;DHT22;18084;53.028;8.834;2022-11-02T08:39:59;15.50;99.90
31455;DHT22;18084;53.028;8.834;2022-11-02T08:42:24;15.50;99.90
31455;DHT22;18084;53.028;8.834;2022-11-02T08:44:50;15.80;92.30
31455;DHT22;18084;53.028;8.834;2022-11-02T08:47:15;16.20;3.50
31455;DHT22;18084;53.028;8.834;2022-11-02T08:49:43;17.20;99.90
31455;DHT22;18084;53.028;8.834;2022-11-02T08:52:08;16.60;1.00
31455;DHT22;18084;53.028;8.834;2022-11-02T08:54:34;16.60;63.50
31455;DHT22;18084;53.028;8.834;2022-11-02T08:57:00;16.20;39.40
31455;DHT22;18084;53.028;8.834;2022-11-02T08:59:25;15.40;99.90
31455;DHT22;18084;53.028;8.834;2022-11-02T09:01:50;14.60;99.90
31455;DHT22;18084;53.028;8.834;2022-11-02T09:04:16;15.90;99.90
31455;DHT22;18084;53.028;8.834;2022-11-02T09:06:41;15.30;99.90
31455;DHT22;18084;53.028;8.834;2022-11-02T09:09:07;15.00;1.00
31455;DHT22;18084;53.028;8.834;2022-11-02T09:11:33;14.60;99.90
31455;DHT22;18084;53.028;8.834;2022-11-02T09:13:58;14.20;99.90
31455;DHT22;18084;53.028;8.834;2022-11-02T09:16:24;14.40;99.90
31455;DHT22;18084;53.028;8.834;2022-11-02T09:18:49;14.80;63.00
31455;DHT22;18084;53.028;8.834;2022-11-02T09:21:15;15.70;99.90
31455;DHT22;18084;53.028;8.834;2022-11-02T09:23:40;15.80;1.00
31455;DHT22;18084;53.028;8.834;2022-11-02T09:26:05;16.10;99.90
31455;DHT22;18084;53.028;8.834;2022-11-02T09:28:31;17.00;1.00
31455;DHT22;18084;53.028;8.834;2022-11-02T09:30:57;16.60;99.90
31455;DHT22;18084;53.028;8.834;2022-11-02T09:33:22;16.10;99.90
31455;DHT22;18084;53.028;8.834;2022-11-02T09:35:49;15.30;99.90
31455;DHT22;18084;53.028;8.834;2022-11-02T09:38:15;14.60;99.90
31455;DHT22;18084;53.028;8.834;2022-11-02T09:46:18;13.70;1.00
31455;DHT22;18084;53.028;8.834;2022-11-02T09:49:14;13.60;68.10
31455;DHT22;18084;53.028;8.834;2022-11-02T09:51:51;13.50;99.90
31455;DHT22;18084;53.028;8.834;2022-11-02T09:56:55;13.60;1.00
31455;DHT22;18084;53.028;8.834;2022-11-02T09:59:23;13.90;47.50
31455;DHT22;18084;53.028;8.834;2022-11-02T10:15:53;12.70;3.10
31455;DHT22;18084;53.028;8.834;2022-11-02T10:18:25;13.10;1.00
31455;DHT22;18084;53.028;8.834;2022-11-02T10:20:57;13.40;1.00
31455;DHT22;18084;53.028;8.834;2022-11-02T10:23:31;14.00;1.00
31455;DHT22;18084;53.028;8.834;2022-11-02T10:26:00;14.20;99.90
31455;DHT22;18084;53.028;8.834;2022-11-02T10:28:30;14.30;1.00
31455;DHT22;18084;53.028;8.834;2022-11-02T10:30:56;14.30;1.00
31455;DHT22;18084;53.028;8.834;2022-11-02T10:33:25;14.30;99.90
31455;DHT22;18084;53.028;8.834;2022-11-02T10:36:23;14.20;99.90
31455;DHT22;18084;53.028;8.834;2022-11-02T10:47:32;14.20;99.90
31455;DHT22;18084;53.028;8.834;2022-11-02T10:50:27;14.10;99.90
31455;DHT22;18084;53.028;8.834;2022-11-02T10:53:00;13.90;99.90
31455;DHT22;18084;53.028;8.834;2022-11-02T10:55:44;13.90;99.90
31455;DHT22;18084;53.028;8.834;2022-11-02T10:58:18;13.80;1.00
31455;DHT22;18084;53.028;8.834;2022-11-02T11:00:44;13.80;48.60
31455;DHT22;18084;53.028;8.834;2022-11-02T11:03:10;13.70;80.60
31455;DHT22;18084;53.028;8.834;2022-11-02T11:05:57;13.70;99.90
31455;DHT22;18084;53.028;8.834;2022-11-02T11:08:34;13.80;99.90
31455;DHT22;18084;53.028;8.834;2022-11-02T11:11:23;13.80;99.90
31455;DHT22;18084;53.028;8.834;2022-11-02T11:16:35;13.80;1.00
31455;DHT22;18084;53.028;8.834;2022-11-02T11:19:02;13.70;99.90
31455;DHT22;18084;53.028;8.834;2022-11-02T11:21:40;13.70;99.90
31455;DHT22;18084;53.028;8.834;2022-11-02T11:24:30;13.70;99.90
31455;DHT22;18084;53.028;8.834;2022-11-02T11:27:20;13.80;1.00
31455;DHT22;18084;53.028;8.834;2022-11-02T11:29:56;13.80;83.50
31455;DHT22;18084;53.028;8.834;2022-11-02T11:32:27;14.00;1.00
31455;DHT22;18084;53.028;8.834;2022-11-02T11:35:05;14.00;45.40
31455;DHT22;18084;53.028;8.834;2022-11-02T11:37:32;13.80;1.00
31455;DHT22;18084;53.028;8.834;2022-11-02T11:40:17;13.70;99.90
31455;DHT22;18084;53.028;8.834;2022-11-02T11:42:43;13.70;1.00
31455;DHT22;18084;53.028;8.834;2022-11-02T11:45:22;13.80;1.00
31455;DHT22;18084;53.028;8.834;2022-11-02T11:50:25;14.10;99.90
31455;DHT22;18084;53.028;8.834;2022-11-02T11:55:45;14.10;8.00
31455;DHT22;18084;53.028;8.834;2022-11-02T11:58:15;13.80;1.00
31455;DHT22;18084;53.028;8.834;2022-11-02T12:00:43;13.60;56.40
31455;DHT22;18084;53.028;8.834;2022-11-02T12:03:10;13.50;1.00
31455;DHT22;18084;53.028;8.834;2022-11-02T12:11:46;14.40;99.90
31455;DHT22;18084;53.028;8.834;2022-11-02T12:14:26;14.80;17.90
31455;DHT22;18084;53.028;8.834;2022-11-02T12:17:09;14.90;99.90
31455;DHT22;18084;53.028;8.834;2022-11-02T12:22:34;14.80;99.90
31455;DHT22;18084;53.028;8.834;2022-11-02T12:30:23;14.30;99.90
31455;DHT22;18084;53.028;8.834;2022-11-02T12:35:43;14.40;99.90
31455;DHT22;18084;53.028;8.834;2022-11-02T12:44:21;14.50;99.90
31455;DHT22;18084;53.028;8.834;2022-11-02T12:46:55;14.60;87.70
31455;DHT22;18084;53.028;8.834;2022-11-02T12:49:36;14.60;13.60
31455;DHT22;18084;53.028;8.834;2022-11-02T12:52:29;14.50;1.00
31455;DHT22;18084;53.028;8.834;2022-11-02T12:55:01;14.60;1.00
31455;DHT22;18084;53.028;8.834;2022-11-02T12:57:32;14.60;1.00
31455;DHT22;18084;53.028;8.834;2022-11-02T13:00:03;14.50;99.90
31455;DHT22;18084;53.028;8.834;2022-11-02T13:02:39;14.40;99.90
31455;DHT22;18084;53.028;8.834;2022-11-02T13:05:17;14.30;99.90
31455;DHT22;18084;53.028;8.834;2022-11-02T13:08:10;14.40;99.90
31455;DHT22;18084;53.028;8.834;2022-11-02T13:10:52;14.60;1.00
31455;DHT22;18084;53.028;8.834;2022-11-02T13:13:35;14.40;99.90
31455;DHT22;18084;53.028;8.834;2022-11-02T13:16:03;14.40;99.90
31455;DHT22;18084;53.028;8.834;2022-11-02T13:18:43;14.50;99.90
31455;DHT22;18084;53.028;8.834;2022-11-02T13:21:11;14.50;99.90
31455;DHT22;18084;53.028;8.834;2022-11-02T13:23:48;14.40;99.90
31455;DHT22;18084;53.028;8.834;2022-11-02T13:28:58;14.20;99.90
31455;DHT22;18084;53.028;8.834;2022-11-02T13:34:01;14.40;99.90
31455;DHT22;18084;53.028;8.834;2022-11-02T13:36:28;14.40;99.90
31455;DHT22;18084;53.028;8.834;2022-11-02T13:39:01;14.40;1.00
31455;DHT22;18084;53.028;8.834;2022-11-02T13:44:35;14.40;1.00
31455;DHT22;18084;53.028;8.834;2022-11-02T13:47:29;14.50;1.00
31455;DHT22;18084;53.028;8.834;2022-11-02T13:49:58;14.50;15.70
31455;DHT22;18084;53.028;8.834;2022-11-02T13:52:42;14.50;41.00
31455;DHT22;18084;53.028;8.834;2022-11-02T13:55:18;14.60;1.00
31455;DHT22;18084;53.028;8.834;2022-11-02T13:57:52;14.60;1.00
31455;DHT22;18084;53.028;8.834;2022-11-02T14:05:28;14.80;99.90
31455;DHT22;18084;53.028;8.834;2022-11-02T14:08:08;14.70;99.90
31455;DHT22;18084;53.028;8.834;2022-11-02T14:10:37;14.60;99.90
31455;DHT22;18084;53.028;8.834;2022-11-02T14:13:03;14.60;99.90
31455;DHT22;18084;53.028;8.834;2022-11-02T14:18:09;14.50;1.00
31455;DHT22;18084;53.028;8.834;2022-11-02T14:20:45;14.40;1.00
31455;DHT22;18084;53.028;8.834;2022-11-02T14:25:54;14.30;1.80
31455;DHT22;18084;53.028;8.834;2022-11-02T14:30:56;14.20;99.90
31455;DHT22;18084;53.028;8.834;2022-11-02T14:33:42;14.50;95.00
31455;DHT22;18084;53.028;8.834;2022-11-02T14:39:17;14.10;32.40
31455;DHT22;18084;53.028;8.834;2022-11-02T14:47:43;13.90;99.90
31455;DHT22;18084;53.028;8.834;2022-11-02T14:52:43;13.80;99.90
31455;DHT22;18084;53.028;8.834;2022-11-02T14:57:43;13.70;70.40
31455;DHT22;18084;53.028;8.834;2022-11-02T15:00:28;13.80;99.90
31455;DHT22;18084;53.028;8.834;2022-11-02T15:02:54;13.70;99.90
31455;DHT22;18084;53.028;8.834;2022-11-02T15:05:32;14.00;1.00
31455;DHT22;18084;53.028;8.834;2022-11-02T15:08:07;13.60;99.90
31455;DHT22;18084;53.028;8.834;2022-11-02T15:10:39;13.50;1.00
31455;DHT22;18084;53.028;8.834;2022-11-02T15:13:23;13.40;82.20
31455;DHT22;18084;53.028;8.834;2022-11-02T15:18:31;13.20;99.90
31455;DHT22;18084;53.028;8.834;2022-11-02T15:26:28;13.10;99.90
31455;DHT22;18084;53.028;8.834;2022-11-02T15:28:59;13.00;99.90
31455;DHT22;18084;53.028;8.834;2022-11-02T15:31:26;12.90;1.00
31455;DHT22;18084;53.028;8.834;2022-11-02T15:33:57;12.90;99.90
31455;DHT22;18084;53.028;8.834;2022-11-02T15:36:35;12.80;99.90
31455;DHT22;18084;53.028;8.834;2022-11-02T15:39:05;12.70;99.90
31455;DHT22;18084;53.028;8.834;2022-11-02T15:42:13;12.60;1.00
31455;DHT22;18084;53.028;8.834;2022-11-02T15:58:00;12.30;99.90
31455;DHT22;18084;53.028;8.834;2022-11-02T16:00:29;12.10;59.90
31455;DHT22;18084;53.028;8.834;2022-11-02T16:02:59;12.00;99.90
31455;DHT22;18084;53.028;8.834;2022-11-02T16:05:26;12.00;1.00
31455;DHT22;18084;53.028;8.834;2022-11-02T16:07:54;11.90;99.90
31455;DHT22;18084;53.028;8.834;2022-11-02T16:13:17;11.70;99.90
31455;DHT22;18084;53.028;8.834;2022-11-02T16:15:41;11.60;1.00
31455;DHT22;18084;53.028;8.834;2022-11-02T16:18:37;11.50;99.90
31455;DHT22;18084;53.028;8.834;2022-11-02T16:21:05;11.50;1.00
31455;DHT22;18084;53.028;8.834;2022-11-02T16:23:35;11.40;99.90
31455;DHT22;18084;53.028;8.834;2022-11-02T16:26:03;11.40;99.90
31455;DHT22;18084;53.028;8.834;2022-11-02T16:28:32;11.30;99.90
31455;DHT22;18084;53.028;8.834;2022-11-02T16:30:59;11.30;99.90
31455;DHT22;18084;53.028;8.834;2022-11-02T16:33:29;11.20;99.90
31455;DHT22;18084;53.028;8.834;2022-11-02T16:35:56;11.20;99.90
31455;DHT22;18084;53.028;8.834;2022-11-02T16:38:22;11.20;99.90
31455;DHT22;18084;53.028;8.834;2022-11-02T16:40:48;11.10;1.00
31455;DHT22;18084;53.028;8.834;2022-11-02T16:43:14;11.10;1.00
31455;DHT22;18084;53.028;8.834;2022-11-02T16:45:40;11.00;45.30
31455;DHT22;18084;53.028;8.834;2022-11-02T16:48:22;11.00;10.50
31455;DHT22;18084;53.028;8.834;2022-11-02T16:53:29;10.80;99.90
31455;DHT22;18084;53.028;8.834;2022-11-02T16:55:57;10.80;99.90
31455;DHT22;18084;53.028;8.834;2022-11-02T16:58:24;10.70;99.90
31455;DHT22;18084;53.028;8.834;2022-11-02T17:03:21;10.60;99.90
31455;DHT22;18084;53.028;8.834;2022-11-02T17:05:48;10.60;99.90
31455;DHT22;18084;53.028;8.834;2022-11-02T17:08:35;10.60;99.90
31455;DHT22;18084;53.028;8.834;2022-11-02T17:11:03;10.50;99.90
31455;DHT22;18084;53.028;8.834;2022-11-02T17:13:33;10.50;99.90
31455;DHT22;18084;53.028;8.834;2022-11-02T17:16:10;10.50;99.90
31455;DHT22;18084;53.028;8.834;2022-11-02T17:18:36;10.50;99.90
31455;DHT22;18084;53.028;8.834;2022-11-02T17:23:44;10.40;99.90
31455;DHT22;18084;53.028;8.834;2022-11-02T17:28:50;10.30;99.90
31455;DHT22;18084;53.028;8.834;2022-11-02T17:31:24;10.20;99.90
31455;DHT22;18084;53.028;8.834;2022-11-02T17:33:52;10.10;99.90
31455;DHT22;18084;53.028;8.834;2022-11-02T17:36:18;10.00;99.90
31455;DHT22;18084;53.028;8.834;2022-11-02T17:38:44;10.00;99.90
31455;DHT22;18084;53.028;8.834;2022-11-02T17:41:16;9.90;99.90
31455;DHT22;18084;53.028;8.834;2022-11-02T17:44:01;9.90;99.90
31455;DHT22;18084;53.028;8.834;2022-11-02T17:46:26;9.80;1.00
31455;DHT22;18084;53.028;8.834;2022-11-02T17:48:52;9.80;1.00
31455;DHT22;18084;53.028;8.834;2022-11-02T17:51:19;9.80;1.00
31455;DHT22;18084;53.028;8.834;2022-11-02T17:53:44;9.90;1.00
31455;DHT22;18084;53.028;8.834;2022-11-02T17:56:10;9.70;1.00
31455;DHT22;18084;53.028;8.834;2022-11-02T17:58:36;9.70;99.90
31455;DHT22;18084;53.028;8.834;2022-11-02T18:01:02;9.60;1.00
31455;DHT22;18084;53.028;8.834;2022-11-02T18:03:28;9.50;1.00
31455;DHT22;18084;53.028;8.834;2022-11-02T18:05:55;9.50;1.00
31455;DHT22;18084;53.028;8.834;2022-11-02T18:08:21;9.50;1.00
31455;DHT22;18084;53.028;8.834;2022-11-02T18:10:48;9.60;1.00
31455;DHT22;18084;53.028;8.834;2022-11-02T18:13:20;9.40;1.00
31455;DHT22;18084;53.028;8.834;2022-11-02T18:15:46;9.40;1.00
31455;DHT22;18084;53.028;8.834;2022-11-02T18:18:12;9.50;1.00
31455;DHT22;18084;53.028;8.834;2022-11-02T18:20:38;9.80;1.00
31455;DHT22;18084;53.028;8.834;2022-11-02T18:23:04;9.40;1.00
31455;DHT22;18084;53.028;8.834;2022-11-02T18:25:31;9.20;1.00
31455;DHT22;18084;53.028;8.834;2022-11-02T18:27:59;9.20;1.00
31455;DHT22;18084;53.028;8.834;2022-11-02T18:30:26;9.10;1.00
31455;DHT22;18084;53.028;8.834;2022-11-02T18:32:55;9.20;1.00